sensor_id;sensor_type;location;lat;lon;timestamp;P1;durP1;ratioP1;P2;durP2;ratioP2
63110;SDS011;49201;53.426;10.300;2022-12-11T00:00:09;18.97;;;12.07;;
63110;SDS011;49201;53.426;10.300;2022-12-11T00:02:45;22.10;;;12.60;;
63110;SDS011;49201;53.426;10.300;2022-12-11T00:05:39;20.17;;;12.13;;
63110;SDS011;49201;53.426;10.300;2022-12-11T00:08:05;22.17;;;12.27;;
63110;SDS011;49201;53.426;10.300;2022-12-11T00:10:33;21.03;;;12.90;;
63110;SDS011;49201;53.426;10.300;2022-12-11T00:13:01;20.87;;;12.10;;
63110;SDS011;49201;53.426;10.300;2022-12-11T00:15:27;22.43;;;12.00;;
63110;SDS011;49201;53.426;10.300;2022-12-11T00:17:55;22.07;;;12.37;;
63110;SDS011;49201;53.426;10.300;2022-12-11T00:20:26;20.73;;;12.37;;
63110;SDS011;49201;53.426;10.300;2022-12-11T00:22:55;19.93;;;11.50;;
63110;SDS011;49201;53.426;10.300;2022-12-11T00:25:27;19.07;;;11.03;;
63110;SDS011;49201;53.426;10.300;2022-12-11T00:28:07;18.93;;;11.53;;
63110;SDS011;49201;53.426;10.300;2022-12-11T00:30:46;18.87;;;11.27;;
63110;SDS011;49201;53.426;10.300;2022-12-11T00:33:13;21.17;;;12.27;;
63110;SDS011;49201;53.426;10.300;2022-12-11T00:35:40;20.37;;;11.37;;
63110;SDS011;49201;53.426;10.300;2022-12-11T00:38:08;20.40;;;11.97;;
63110;SDS011;49201;53.426;10.300;2022-12-11T00:40:45;20.63;;;12.20;;
63110;SDS011;49201;53.426;10.300;2022-12-11T00:43:15;20.33;;;11.57;;
63110;SDS011;49201;53.426;10.300;2022-12-11T00:45:42;18.07;;;10.93;;
63110;SDS011;49201;53.426;10.300;2022-12-11T00:48:12;18.10;;;11.27;;
63110;SDS011;49201;53.426;10.300;2022-12-11T00:50:43;17.77;;;11.27;;
63110;SDS011;49201;53.426;10.300;2022-12-11T00:53:17;17.53;;;10.83;;
63110;SDS011;49201;53.426;10.300;2022-12-11T00:55:51;17.23;;;11.07;;
63110;SDS011;49201;53.426;10.300;2022-12-11T00:58:22;17.33;;;10.87;;
63110;SDS011;49201;53.426;10.300;2022-12-11T01:00:50;16.53;;;10.80;;
63110;SDS011;49201;53.426;10.300;2022-12-11T01:03:21;20.33;;;11.50;;
63110;SDS011;49201;53.426;10.300;2022-12-11T01:05:56;18.60;;;11.50;;
63110;SDS011;49201;53.426;10.300;2022-12-11T01:08:22;19.73;;;11.60;;
63110;SDS011;49201;53.426;10.300;2022-12-11T01:10:59;18.27;;;12.07;;
63110;SDS011;49201;53.426;10.300;2022-12-11T01:13:26;17.90;;;10.87;;
63110;SDS011;49201;53.426;10.300;2022-12-11T01:15:53;19.13;;;11.17;;
63110;SDS011;49201;53.426;10.300;2022-12-11T01:18:20;17.77;;;11.10;;
63110;SDS011;49201;53.426;10.300;2022-12-11T01:20:48;16.37;;;10.13;;
63110;SDS011;49201;53.426;10.300;2022-12-11T01:23:20;21.30;;;11.97;;
63110;SDS011;49201;53.426;10.300;2022-12-11T01:25:46;18.87;;;11.43;;
63110;SDS011;49201;53.426;10.300;2022-12-11T01:28:12;21.07;;;12.37;;
63110;SDS011;49201;53.426;10.300;2022-12-11T01:30:40;19.67;;;11.80;;
63110;SDS011;49201;53.426;10.300;2022-12-11T01:33:08;20.33;;;11.27;;
63110;SDS011;49201;53.426;10.300;2022-12-11T01:35:38;19.67;;;11.37;;
63110;SDS011;49201;53.426;10.300;2022-12-11T01:38:06;17.67;;;10.57;;
63110;SDS011;49201;53.426;10.300;2022-12-11T01:40:32;21.90;;;11.00;;
63110;SDS011;49201;53.426;10.300;2022-12-11T01:43:00;17.43;;;10.87;;
63110;SDS011;49201;53.426;10.300;2022-12-11T01:48:01;17.47;;;10.57;;
63110;SDS011;49201;53.426;10.300;2022-12-11T01:50:52;18.63;;;12.10;;
63110;SDS011;49201;53.426;10.300;2022-12-11T01:53:30;17.53;;;10.57;;
63110;SDS011;49201;53.426;10.300;2022-12-11T01:55:59;18.30;;;10.70;;
63110;SDS011;49201;53.426;10.300;2022-12-11T01:58:30;22.17;;;11.90;;
63110;SDS011;49201;53.426;10.300;2022-12-11T02:01:01;20.00;;;11.97;;
63110;SDS011;49201;53.426;10.300;2022-12-11T02:03:29;23.47;;;12.27;;
63110;SDS011;49201;53.426;10.300;2022-12-11T02:06:02;19.10;;;11.57;;
63110;SDS011;49201;53.426;10.300;2022-12-11T02:08:34;20.67;;;12.57;;
63110;SDS011;49201;53.426;10.300;2022-12-11T02:11:11;20.63;;;12.10;;
63110;SDS011;49201;53.426;10.300;2022-12-11T02:13:52;17.23;;;10.70;;
63110;SDS011;49201;53.426;10.300;2022-12-11T02:16:54;20.33;;;11.67;;
63110;SDS011;49201;53.426;10.300;2022-12-11T02:19:32;18.70;;;11.27;;
63110;SDS011;49201;53.426;10.300;2022-12-11T02:22:21;20.00;;;11.43;;
63110;SDS011;49201;53.426;10.300;2022-12-11T02:25:08;21.17;;;12.37;;
63110;SDS011;49201;53.426;10.300;2022-12-11T02:28:24;19.97;;;11.27;;
63110;SDS011;49201;53.426;10.300;2022-12-11T02:31:03;19.20;;;11.13;;
63110;SDS011;49201;53.426;10.300;2022-12-11T02:33:40;17.07;;;10.77;;
63110;SDS011;49201;53.426;10.300;2022-12-11T02:36:13;21.53;;;11.97;;
63110;SDS011;49201;53.426;10.300;2022-12-11T02:38:48;18.53;;;11.23;;
63110;SDS011;49201;53.426;10.300;2022-12-11T02:41:22;21.20;;;11.10;;
63110;SDS011;49201;53.426;10.300;2022-12-11T02:43:52;19.93;;;12.03;;
63110;SDS011;49201;53.426;10.300;2022-12-11T02:46:21;21.10;;;12.50;;
63110;SDS011;49201;53.426;10.300;2022-12-11T02:48:58;17.83;;;10.77;;
63110;SDS011;49201;53.426;10.300;2022-12-11T02:51:27;18.93;;;11.67;;
63110;SDS011;49201;53.426;10.300;2022-12-11T02:53:58;20.00;;;12.30;;
63110;SDS011;49201;53.426;10.300;2022-12-11T02:56:35;18.73;;;10.97;;
63110;SDS011;49201;53.426;10.300;2022-12-11T02:59:19;19.10;;;10.87;;
63110;SDS011;49201;53.426;10.300;2022-12-11T03:01:52;22.53;;;11.43;;
63110;SDS011;49201;53.426;10.300;2022-12-11T03:04:18;19.70;;;12.60;;
63110;SDS011;49201;53.426;10.300;2022-12-11T03:06:55;20.00;;;11.13;;
63110;SDS011;49201;53.426;10.300;2022-12-11T03:09:31;22.53;;;12.63;;
63110;SDS011;49201;53.426;10.300;2022-12-11T03:12:00;21.03;;;12.57;;
63110;SDS011;49201;53.426;10.300;2022-12-11T03:14:28;21.13;;;11.80;;
63110;SDS011;49201;53.426;10.300;2022-12-11T03:17:07;20.47;;;11.63;;
63110;SDS011;49201;53.426;10.300;2022-12-11T03:19:40;20.23;;;11.63;;
63110;SDS011;49201;53.426;10.300;2022-12-11T03:22:25;22.10;;;12.23;;
63110;SDS011;49201;53.426;10.300;2022-12-11T03:25:04;21.60;;;12.17;;
63110;SDS011;49201;53.426;10.300;2022-12-11T03:27:35;20.40;;;12.43;;
63110;SDS011;49201;53.426;10.300;2022-12-11T03:30:13;20.33;;;12.20;;
63110;SDS011;49201;53.426;10.300;2022-12-11T03:33:54;21.40;;;11.60;;
63110;SDS011;49201;53.426;10.300;2022-12-11T03:35:52;23.57;;;11.80;;
63110;SDS011;49201;53.426;10.300;2022-12-11T03:38:30;21.67;;;12.30;;
63110;SDS011;49201;53.426;10.300;2022-12-11T03:41:18;19.23;;;12.57;;
63110;SDS011;49201;53.426;10.300;2022-12-11T03:43:50;22.40;;;12.63;;
63110;SDS011;49201;53.426;10.300;2022-12-11T03:46:22;21.73;;;11.60;;
63110;SDS011;49201;53.426;10.300;2022-12-11T03:49:00;21.30;;;12.33;;
63110;SDS011;49201;53.426;10.300;2022-12-11T03:51:30;19.07;;;12.17;;
63110;SDS011;49201;53.426;10.300;2022-12-11T03:53:58;21.37;;;12.53;;
63110;SDS011;49201;53.426;10.300;2022-12-11T03:56:30;20.20;;;11.93;;
63110;SDS011;49201;53.426;10.300;2022-12-11T03:59:04;22.83;;;12.77;;
63110;SDS011;49201;53.426;10.300;2022-12-11T04:01:33;20.40;;;12.13;;
63110;SDS011;49201;53.426;10.300;2022-12-11T04:04:04;22.07;;;12.73;;
63110;SDS011;49201;53.426;10.300;2022-12-11T04:06:30;20.13;;;12.23;;
63110;SDS011;49201;53.426;10.300;2022-12-11T04:08:59;19.20;;;12.00;;
63110;SDS011;49201;53.426;10.300;2022-12-11T04:11:28;20.20;;;12.87;;
63110;SDS011;49201;53.426;10.300;2022-12-11T04:14:02;25.77;;;15.23;;
63110;SDS011;49201;53.426;10.300;2022-12-11T04:16:48;21.43;;;12.80;;
63110;SDS011;49201;53.426;10.300;2022-12-11T04:19:14;20.53;;;12.50;;
63110;SDS011;49201;53.426;10.300;2022-12-11T04:21:59;20.67;;;12.60;;
63110;SDS011;49201;53.426;10.300;2022-12-11T04:24:46;19.50;;;11.40;;
63110;SDS011;49201;53.426;10.300;2022-12-11T04:27:16;18.83;;;11.30;;
63110;SDS011;49201;53.426;10.300;2022-12-11T04:30:02;20.77;;;11.63;;
63110;SDS011;49201;53.426;10.300;2022-12-11T04:32:36;17.70;;;11.03;;
63110;SDS011;49201;53.426;10.300;2022-12-11T04:35:05;17.17;;;10.57;;
63110;SDS011;49201;53.426;10.300;2022-12-11T04:37:35;19.07;;;11.47;;
63110;SDS011;49201;53.426;10.300;2022-12-11T04:40:03;13.90;;;9.33;;
63110;SDS011;49201;53.426;10.300;2022-12-11T04:42:35;17.60;;;10.47;;
63110;SDS011;49201;53.426;10.300;2022-12-11T04:45:11;19.03;;;10.80;;
63110;SDS011;49201;53.426;10.300;2022-12-11T04:47:47;16.27;;;10.50;;
63110;SDS011;49201;53.426;10.300;2022-12-11T04:50:27;16.07;;;9.53;;
63110;SDS011;49201;53.426;10.300;2022-12-11T04:53:01;17.60;;;10.50;;
63110;SDS011;49201;53.426;10.300;2022-12-11T04:55:27;16.20;;;10.50;;
63110;SDS011;49201;53.426;10.300;2022-12-11T04:57:55;17.60;;;10.40;;
63110;SDS011;49201;53.426;10.300;2022-12-11T05:00:24;20.33;;;11.53;;
63110;SDS011;49201;53.426;10.300;2022-12-11T05:02:59;18.60;;;10.57;;
63110;SDS011;49201;53.426;10.300;2022-12-11T05:05:28;18.13;;;11.17;;
63110;SDS011;49201;53.426;10.300;2022-12-11T05:07:57;18.50;;;11.00;;
63110;SDS011;49201;53.426;10.300;2022-12-11T05:10:23;18.13;;;11.17;;
63110;SDS011;49201;53.426;10.300;2022-12-11T05:12:57;18.57;;;10.97;;
63110;SDS011;49201;53.426;10.300;2022-12-11T05:15:23;16.87;;;10.33;;
63110;SDS011;49201;53.426;10.300;2022-12-11T05:17:52;16.03;;;9.93;;
63110;SDS011;49201;53.426;10.300;2022-12-11T05:20:24;17.23;;;10.73;;
63110;SDS011;49201;53.426;10.300;2022-12-11T05:22:52;18.40;;;10.57;;
63110;SDS011;49201;53.426;10.300;2022-12-11T05:25:20;18.17;;;10.73;;
63110;SDS011;49201;53.426;10.300;2022-12-11T05:27:50;19.07;;;11.57;;
63110;SDS011;49201;53.426;10.300;2022-12-11T05:30:18;20.57;;;11.43;;
63110;SDS011;49201;53.426;10.300;2022-12-11T05:32:52;19.70;;;11.67;;
63110;SDS011;49201;53.426;10.300;2022-12-11T05:35:29;19.33;;;10.57;;
63110;SDS011;49201;53.426;10.300;2022-12-11T05:38:02;19.67;;;12.00;;
63110;SDS011;49201;53.426;10.300;2022-12-11T05:40:28;20.27;;;12.37;;
63110;SDS011;49201;53.426;10.300;2022-12-11T05:42:57;20.83;;;11.70;;
63110;SDS011;49201;53.426;10.300;2022-12-11T05:45:26;20.63;;;11.20;;
63110;SDS011;49201;53.426;10.300;2022-12-11T05:47:55;19.53;;;10.43;;
63110;SDS011;49201;53.426;10.300;2022-12-11T05:50:29;18.70;;;10.57;;
63110;SDS011;49201;53.426;10.300;2022-12-11T05:53:00;18.40;;;11.40;;
63110;SDS011;49201;53.426;10.300;2022-12-11T05:55:28;18.50;;;10.50;;
63110;SDS011;49201;53.426;10.300;2022-12-11T05:58:01;18.63;;;10.57;;
63110;SDS011;49201;53.426;10.300;2022-12-11T06:00:49;19.43;;;11.03;;
63110;SDS011;49201;53.426;10.300;2022-12-11T06:03:20;22.00;;;11.33;;
63110;SDS011;49201;53.426;10.300;2022-12-11T06:06:09;18.73;;;10.57;;
63110;SDS011;49201;53.426;10.300;2022-12-11T06:09:10;17.50;;;10.07;;
63110;SDS011;49201;53.426;10.300;2022-12-11T06:11:41;18.53;;;10.70;;
63110;SDS011;49201;53.426;10.300;2022-12-11T06:14:13;18.63;;;11.20;;
63110;SDS011;49201;53.426;10.300;2022-12-11T06:16:41;22.20;;;11.40;;
63110;SDS011;49201;53.426;10.300;2022-12-11T06:19:24;20.37;;;11.50;;
63110;SDS011;49201;53.426;10.300;2022-12-11T06:21:54;22.67;;;11.03;;
63110;SDS011;49201;53.426;10.300;2022-12-11T06:24:26;16.57;;;9.63;;
63110;SDS011;49201;53.426;10.300;2022-12-11T06:26:54;18.40;;;10.73;;
63110;SDS011;49201;53.426;10.300;2022-12-11T06:29:26;19.93;;;10.83;;
63110;SDS011;49201;53.426;10.300;2022-12-11T06:31:52;20.50;;;11.00;;
63110;SDS011;49201;53.426;10.300;2022-12-11T06:34:20;19.27;;;10.53;;
63110;SDS011;49201;53.426;10.300;2022-12-11T06:36:52;20.37;;;10.70;;
63110;SDS011;49201;53.426;10.300;2022-12-11T06:39:18;21.17;;;11.17;;
63110;SDS011;49201;53.426;10.300;2022-12-11T06:41:44;22.93;;;11.80;;
63110;SDS011;49201;53.426;10.300;2022-12-11T06:44:10;19.97;;;11.00;;
63110;SDS011;49201;53.426;10.300;2022-12-11T06:46:47;20.67;;;11.30;;
63110;SDS011;49201;53.426;10.300;2022-12-11T06:49:13;19.93;;;10.37;;
63110;SDS011;49201;53.426;10.300;2022-12-11T06:51:49;20.50;;;11.20;;
63110;SDS011;49201;53.426;10.300;2022-12-11T06:54:18;22.13;;;12.00;;
63110;SDS011;49201;53.426;10.300;2022-12-11T06:56:44;24.73;;;12.37;;
63110;SDS011;49201;53.426;10.300;2022-12-11T06:59:15;22.53;;;11.70;;
63110;SDS011;49201;53.426;10.300;2022-12-11T07:01:43;26.30;;;13.53;;
63110;SDS011;49201;53.426;10.300;2022-12-11T07:04:14;24.37;;;12.30;;
63110;SDS011;49201;53.426;10.300;2022-12-11T07:06:43;24.67;;;12.27;;
63110;SDS011;49201;53.426;10.300;2022-12-11T07:09:11;21.67;;;12.13;;
63110;SDS011;49201;53.426;10.300;2022-12-11T07:11:45;19.87;;;10.93;;
63110;SDS011;49201;53.426;10.300;2022-12-11T07:14:13;22.20;;;10.93;;
63110;SDS011;49201;53.426;10.300;2022-12-11T07:16:39;23.43;;;11.47;;
63110;SDS011;49201;53.426;10.300;2022-12-11T07:19:08;23.33;;;12.53;;
63110;SDS011;49201;53.426;10.300;2022-12-11T07:21:34;23.30;;;11.77;;
63110;SDS011;49201;53.426;10.300;2022-12-11T07:24:03;24.53;;;12.63;;
63110;SDS011;49201;53.426;10.300;2022-12-11T07:26:36;22.20;;;11.57;;
63110;SDS011;49201;53.426;10.300;2022-12-11T07:29:11;23.93;;;12.10;;
63110;SDS011;49201;53.426;10.300;2022-12-11T07:31:40;22.57;;;12.23;;
63110;SDS011;49201;53.426;10.300;2022-12-11T07:34:05;21.47;;;11.90;;
63110;SDS011;49201;53.426;10.300;2022-12-11T07:36:38;22.20;;;12.07;;
63110;SDS011;49201;53.426;10.300;2022-12-11T07:39:06;21.50;;;11.57;;
63110;SDS011;49201;53.426;10.300;2022-12-11T07:41:33;20.10;;;11.37;;
63110;SDS011;49201;53.426;10.300;2022-12-11T07:44:08;22.40;;;11.67;;
63110;SDS011;49201;53.426;10.300;2022-12-11T07:46:37;23.13;;;11.80;;
63110;SDS011;49201;53.426;10.300;2022-12-11T07:49:11;21.47;;;11.53;;
63110;SDS011;49201;53.426;10.300;2022-12-11T07:51:37;22.93;;;11.80;;
63110;SDS011;49201;53.426;10.300;2022-12-11T07:54:07;21.13;;;12.03;;
63110;SDS011;49201;53.426;10.300;2022-12-11T07:56:46;21.40;;;11.53;;
63110;SDS011;49201;53.426;10.300;2022-12-11T07:59:12;22.83;;;12.50;;
63110;SDS011;49201;53.426;10.300;2022-12-11T08:01:39;22.37;;;12.10;;
63110;SDS011;49201;53.426;10.300;2022-12-11T08:04:16;25.97;;;13.07;;
63110;SDS011;49201;53.426;10.300;2022-12-11T08:06:50;22.80;;;12.23;;
63110;SDS011;49201;53.426;10.300;2022-12-11T08:09:16;25.70;;;13.33;;
63110;SDS011;49201;53.426;10.300;2022-12-11T08:11:52;21.13;;;12.03;;
63110;SDS011;49201;53.426;10.300;2022-12-11T08:14:24;40.07;;;22.00;;
63110;SDS011;49201;53.426;10.300;2022-12-11T08:16:53;32.57;;;18.33;;
63110;SDS011;49201;53.426;10.300;2022-12-11T08:19:24;27.50;;;15.40;;
63110;SDS011;49201;53.426;10.300;2022-12-11T08:21:53;26.03;;;13.77;;
63110;SDS011;49201;53.426;10.300;2022-12-11T08:24:22;25.83;;;13.37;;
63110;SDS011;49201;53.426;10.300;2022-12-11T08:26:53;36.77;;;18.93;;
63110;SDS011;49201;53.426;10.300;2022-12-11T08:29:19;29.50;;;16.00;;
63110;SDS011;49201;53.426;10.300;2022-12-11T08:31:45;31.33;;;15.23;;
63110;SDS011;49201;53.426;10.300;2022-12-11T08:34:14;26.40;;;13.80;;
63110;SDS011;49201;53.426;10.300;2022-12-11T08:36:40;23.03;;;12.03;;
63110;SDS011;49201;53.426;10.300;2022-12-11T08:39:12;20.27;;;11.13;;
63110;SDS011;49201;53.426;10.300;2022-12-11T08:41:38;20.93;;;11.80;;
63110;SDS011;49201;53.426;10.300;2022-12-11T08:44:09;21.57;;;11.30;;
63110;SDS011;49201;53.426;10.300;2022-12-11T08:46:41;21.80;;;11.03;;
63110;SDS011;49201;53.426;10.300;2022-12-11T08:49:08;20.07;;;11.10;;
63110;SDS011;49201;53.426;10.300;2022-12-11T08:51:41;22.07;;;11.20;;
63110;SDS011;49201;53.426;10.300;2022-12-11T08:54:16;20.50;;;10.73;;
63110;SDS011;49201;53.426;10.300;2022-12-11T08:56:48;20.00;;;11.63;;
63110;SDS011;49201;53.426;10.300;2022-12-11T08:59:34;21.23;;;11.33;;
63110;SDS011;49201;53.426;10.300;2022-12-11T09:02:04;20.07;;;10.40;;
63110;SDS011;49201;53.426;10.300;2022-12-11T09:04:41;22.07;;;12.53;;
63110;SDS011;49201;53.426;10.300;2022-12-11T09:07:10;26.63;;;14.33;;
63110;SDS011;49201;53.426;10.300;2022-12-11T09:09:37;22.20;;;13.40;;
63110;SDS011;49201;53.426;10.300;2022-12-11T09:12:06;23.67;;;13.57;;
63110;SDS011;49201;53.426;10.300;2022-12-11T09:14:33;22.87;;;14.00;;
63110;SDS011;49201;53.426;10.300;2022-12-11T09:16:59;23.80;;;13.03;;
63110;SDS011;49201;53.426;10.300;2022-12-11T09:19:28;23.80;;;13.63;;
63110;SDS011;49201;53.426;10.300;2022-12-11T09:21:56;21.17;;;12.83;;
63110;SDS011;49201;53.426;10.300;2022-12-11T09:24:28;25.17;;;14.90;;
63110;SDS011;49201;53.426;10.300;2022-12-11T09:26:54;22.63;;;13.70;;
63110;SDS011;49201;53.426;10.300;2022-12-11T09:29:20;20.30;;;12.80;;
63110;SDS011;49201;53.426;10.300;2022-12-11T09:31:49;17.83;;;10.97;;
63110;SDS011;49201;53.426;10.300;2022-12-11T09:34:15;18.67;;;11.33;;
63110;SDS011;49201;53.426;10.300;2022-12-11T09:36:44;19.77;;;11.17;;
63110;SDS011;49201;53.426;10.300;2022-12-11T09:39:13;19.73;;;10.30;;
63110;SDS011;49201;53.426;10.300;2022-12-11T09:41:45;16.43;;;9.53;;
63110;SDS011;49201;53.426;10.300;2022-12-11T09:44:23;15.90;;;9.63;;
63110;SDS011;49201;53.426;10.300;2022-12-11T09:47:59;15.80;;;8.90;;
63110;SDS011;49201;53.426;10.300;2022-12-11T09:50:29;18.33;;;10.47;;
63110;SDS011;49201;53.426;10.300;2022-12-11T09:53:14;16.40;;;10.13;;
63110;SDS011;49201;53.426;10.300;2022-12-11T09:58:26;14.60;;;9.13;;
63110;SDS011;49201;53.426;10.300;2022-12-11T10:01:02;17.73;;;10.33;;
63110;SDS011;49201;53.426;10.300;2022-12-11T10:06:47;15.37;;;8.73;;
63110;SDS011;49201;53.426;10.300;2022-12-11T10:09:25;16.83;;;9.77;;
63110;SDS011;49201;53.426;10.300;2022-12-11T10:17:53;14.07;;;8.87;;
63110;SDS011;49201;53.426;10.300;2022-12-11T10:20:31;16.63;;;9.27;;
63110;SDS011;49201;53.426;10.300;2022-12-11T10:23:06;16.60;;;10.03;;
63110;SDS011;49201;53.426;10.300;2022-12-11T10:25:39;16.53;;;10.00;;
63110;SDS011;49201;53.426;10.300;2022-12-11T10:28:20;13.73;;;9.13;;
63110;SDS011;49201;53.426;10.300;2022-12-11T10:33:44;12.83;;;8.97;;
63110;SDS011;49201;53.426;10.300;2022-12-11T10:36:29;13.60;;;9.07;;
63110;SDS011;49201;53.426;10.300;2022-12-11T10:39:13;13.50;;;9.27;;
63110;SDS011;49201;53.426;10.300;2022-12-11T10:41:49;12.27;;;8.47;;
63110;SDS011;49201;53.426;10.300;2022-12-11T10:44:28;13.17;;;8.57;;
63110;SDS011;49201;53.426;10.300;2022-12-11T10:49:43;11.33;;;7.57;;
63110;SDS011;49201;53.426;10.300;2022-12-11T10:52:25;13.30;;;9.07;;
63110;SDS011;49201;53.426;10.300;2022-12-11T10:55:19;14.37;;;8.90;;
63110;SDS011;49201;53.426;10.300;2022-12-11T10:57:52;12.30;;;8.57;;
63110;SDS011;49201;53.426;10.300;2022-12-11T11:03:51;16.90;;;11.77;;
63110;SDS011;49201;53.426;10.300;2022-12-11T11:06:15;14.50;;;10.07;;
63110;SDS011;49201;53.426;10.300;2022-12-11T11:08:51;17.90;;;11.47;;
63110;SDS011;49201;53.426;10.300;2022-12-11T11:11:20;11.47;;;9.67;;
63110;SDS011;49201;53.426;10.300;2022-12-11T11:14:18;12.13;;;9.30;;
63110;SDS011;49201;53.426;10.300;2022-12-11T11:16:49;12.23;;;9.83;;
63110;SDS011;49201;53.426;10.300;2022-12-11T11:19:29;11.43;;;9.43;;
63110;SDS011;49201;53.426;10.300;2022-12-11T11:24:38;11.13;;;9.23;;
63110;SDS011;49201;53.426;10.300;2022-12-11T11:27:35;11.30;;;9.33;;
63110;SDS011;49201;53.426;10.300;2022-12-11T11:30:05;10.07;;;8.97;;
63110;SDS011;49201;53.426;10.300;2022-12-11T11:32:49;10.27;;;8.60;;
63110;SDS011;49201;53.426;10.300;2022-12-11T11:35:26;11.47;;;9.63;;
63110;SDS011;49201;53.426;10.300;2022-12-11T11:38:01;12.93;;;9.77;;
63110;SDS011;49201;53.426;10.300;2022-12-11T11:40:40;11.87;;;9.63;;
63110;SDS011;49201;53.426;10.300;2022-12-11T11:43:29;10.27;;;9.07;;
63110;SDS011;49201;53.426;10.300;2022-12-11T11:52:39;11.60;;;9.40;;
63110;SDS011;49201;53.426;10.300;2022-12-11T11:58:14;13.93;;;11.20;;
63110;SDS011;49201;53.426;10.300;2022-12-11T12:00:53;13.30;;;10.10;;
63110;SDS011;49201;53.426;10.300;2022-12-11T12:03:23;10.47;;;9.20;;
63110;SDS011;49201;53.426;10.300;2022-12-11T12:11:12;10.53;;;9.10;;
63110;SDS011;49201;53.426;10.300;2022-12-11T12:16:27;11.67;;;9.83;;
63110;SDS011;49201;53.426;10.300;2022-12-11T12:22:13;11.23;;;9.47;;
63110;SDS011;49201;53.426;10.300;2022-12-11T12:25:15;10.83;;;9.73;;
63110;SDS011;49201;53.426;10.300;2022-12-11T12:31:04;11.10;;;9.70;;
63110;SDS011;49201;53.426;10.300;2022-12-11T12:36:40;12.67;;;10.03;;
63110;SDS011;49201;53.426;10.300;2022-12-11T12:39:38;13.07;;;9.90;;
63110;SDS011;49201;53.426;10.300;2022-12-11T12:42:24;13.23;;;10.03;;
63110;SDS011;49201;53.426;10.300;2022-12-11T12:47:39;15.23;;;10.53;;
63110;SDS011;49201;53.426;10.300;2022-12-11T12:50:12;14.77;;;10.40;;
63110;SDS011;49201;53.426;10.300;2022-12-11T12:52:44;13.73;;;9.67;;
63110;SDS011;49201;53.426;10.300;2022-12-11T12:55:23;14.67;;;9.73;;
63110;SDS011;49201;53.426;10.300;2022-12-11T12:58:03;14.37;;;9.63;;
63110;SDS011;49201;53.426;10.300;2022-12-11T13:00:52;14.50;;;10.13;;
63110;SDS011;49201;53.426;10.300;2022-12-11T13:03:26;14.67;;;9.57;;
63110;SDS011;49201;53.426;10.300;2022-12-11T13:06:03;15.77;;;10.47;;
63110;SDS011;49201;53.426;10.300;2022-12-11T13:08:45;13.97;;;9.57;;
63110;SDS011;49201;53.426;10.300;2022-12-11T13:11:19;14.37;;;10.00;;
63110;SDS011;49201;53.426;10.300;2022-12-11T13:16:51;15.17;;;9.57;;
63110;SDS011;49201;53.426;10.300;2022-12-11T13:19:28;16.73;;;10.33;;
63110;SDS011;49201;53.426;10.300;2022-12-11T13:22:00;17.00;;;10.57;;
63110;SDS011;49201;53.426;10.300;2022-12-11T13:24:28;17.33;;;10.53;;
63110;SDS011;49201;53.426;10.300;2022-12-11T13:27:06;16.50;;;10.20;;
63110;SDS011;49201;53.426;10.300;2022-12-11T13:29:37;16.07;;;10.33;;
63110;SDS011;49201;53.426;10.300;2022-12-11T13:34:42;17.40;;;9.90;;
63110;SDS011;49201;53.426;10.300;2022-12-11T13:40:23;15.27;;;10.37;;
63110;SDS011;49201;53.426;10.300;2022-12-11T13:43:00;16.33;;;10.10;;
63110;SDS011;49201;53.426;10.300;2022-12-11T13:45:43;18.53;;;12.23;;
63110;SDS011;49201;53.426;10.300;2022-12-11T13:51:17;17.30;;;9.60;;
63110;SDS011;49201;53.426;10.300;2022-12-11T13:54:04;15.43;;;9.70;;
63110;SDS011;49201;53.426;10.300;2022-12-11T13:57:12;16.90;;;10.50;;
63110;SDS011;49201;53.426;10.300;2022-12-11T13:59:49;17.40;;;10.03;;
63110;SDS011;49201;53.426;10.300;2022-12-11T14:02:29;15.53;;;9.27;;
63110;SDS011;49201;53.426;10.300;2022-12-11T14:05:05;18.03;;;9.73;;
63110;SDS011;49201;53.426;10.300;2022-12-11T14:07:55;16.87;;;9.43;;
63110;SDS011;49201;53.426;10.300;2022-12-11T14:10:27;16.33;;;10.10;;
63110;SDS011;49201;53.426;10.300;2022-12-11T14:13:05;14.33;;;10.07;;
63110;SDS011;49201;53.426;10.300;2022-12-11T14:15:43;16.57;;;10.43;;
63110;SDS011;49201;53.426;10.300;2022-12-11T14:18:18;16.37;;;10.10;;
63110;SDS011;49201;53.426;10.300;2022-12-11T14:20:56;18.33;;;10.87;;
63110;SDS011;49201;53.426;10.300;2022-12-11T14:23:32;19.13;;;10.80;;
63110;SDS011;49201;53.426;10.300;2022-12-11T14:26:10;17.53;;;11.27;;
63110;SDS011;49201;53.426;10.300;2022-12-11T14:28:47;19.97;;;10.87;;
63110;SDS011;49201;53.426;10.300;2022-12-11T14:31:15;18.07;;;10.93;;
63110;SDS011;49201;53.426;10.300;2022-12-11T14:33:53;17.13;;;10.70;;
63110;SDS011;49201;53.426;10.300;2022-12-11T14:36:27;17.13;;;10.00;;
63110;SDS011;49201;53.426;10.300;2022-12-11T14:39:05;19.27;;;10.80;;
63110;SDS011;49201;53.426;10.300;2022-12-11T14:41:52;17.53;;;10.77;;
63110;SDS011;49201;53.426;10.300;2022-12-11T14:44:28;16.97;;;10.17;;
63110;SDS011;49201;53.426;10.300;2022-12-11T14:47:03;17.53;;;10.07;;
63110;SDS011;49201;53.426;10.300;2022-12-11T14:49:52;18.17;;;10.83;;
63110;SDS011;49201;53.426;10.300;2022-12-11T14:55:29;16.37;;;9.90;;
63110;SDS011;49201;53.426;10.300;2022-12-11T14:58:21;18.23;;;10.93;;
63110;SDS011;49201;53.426;10.300;2022-12-11T15:01:05;20.63;;;11.27;;
63110;SDS011;49201;53.426;10.300;2022-12-11T15:04:01;20.47;;;11.67;;
63110;SDS011;49201;53.426;10.300;2022-12-11T15:06:34;22.10;;;10.43;;
63110;SDS011;49201;53.426;10.300;2022-12-11T15:09:08;16.13;;;10.03;;
63110;SDS011;49201;53.426;10.300;2022-12-11T15:12:13;16.87;;;10.43;;
63110;SDS011;49201;53.426;10.300;2022-12-11T15:14:51;19.13;;;11.00;;
63110;SDS011;49201;53.426;10.300;2022-12-11T15:17:41;20.60;;;10.90;;
63110;SDS011;49201;53.426;10.300;2022-12-11T15:20:19;22.83;;;11.77;;
63110;SDS011;49201;53.426;10.300;2022-12-11T15:22:52;16.13;;;10.60;;
63110;SDS011;49201;53.426;10.300;2022-12-11T15:25:23;17.77;;;11.17;;
63110;SDS011;49201;53.426;10.300;2022-12-11T15:27:55;17.80;;;10.73;;
63110;SDS011;49201;53.426;10.300;2022-12-11T15:30:26;20.23;;;11.30;;
63110;SDS011;49201;53.426;10.300;2022-12-11T15:33:02;18.10;;;11.03;;
63110;SDS011;49201;53.426;10.300;2022-12-11T15:35:57;19.20;;;11.60;;
63110;SDS011;49201;53.426;10.300;2022-12-11T15:38:33;19.50;;;11.33;;
63110;SDS011;49201;53.426;10.300;2022-12-11T15:41:05;19.43;;;11.70;;
63110;SDS011;49201;53.426;10.300;2022-12-11T15:43:37;24.70;;;12.03;;
63110;SDS011;49201;53.426;10.300;2022-12-11T15:46:09;21.97;;;11.97;;
63110;SDS011;49201;53.426;10.300;2022-12-11T15:48:35;20.57;;;12.07;;
63110;SDS011;49201;53.426;10.300;2022-12-11T15:51:01;17.83;;;11.37;;
63110;SDS011;49201;53.426;10.300;2022-12-11T15:53:30;20.53;;;11.50;;
63110;SDS011;49201;53.426;10.300;2022-12-11T15:55:59;29.33;;;16.33;;
63110;SDS011;49201;53.426;10.300;2022-12-11T15:58:28;20.80;;;12.17;;
63110;SDS011;49201;53.426;10.300;2022-12-11T16:00:59;28.47;;;20.23;;